sensor_id;sensor_type;location;lat;lon;timestamp;temperature;humidity
61153;DHT22;47030;50.732;4.286;2022-09-09T00:01:37;15.40;99.90
61153;DHT22;47030;50.732;4.286;2022-09-09T00:04:33;15.40;99.90
61153;DHT22;47030;50.732;4.286;2022-09-09T00:07:39;15.40;99.90
61153;DHT22;47030;50.732;4.286;2022-09-09T00:15:30;15.40;99.90
61153;DHT22;47030;50.732;4.286;2022-09-09T00:21:20;15.50;99.90
61153;DHT22;47030;50.732;4.286;2022-09-09T00:23:52;15.60;99.90
61153;DHT22;47030;50.732;4.286;2022-09-09T00:31:37;15.70;99.90
61153;DHT22;47030;50.732;4.286;2022-09-09T00:34:16;15.70;99.90
61153;DHT22;47030;50.732;4.286;2022-09-09T00:36:44;15.70;99.90
61153;DHT22;47030;50.732;4.286;2022-09-09T00:39:31;15.70;99.90
61153;DHT22;47030;50.732;4.286;2022-09-09T00:42:20;15.70;99.90
61153;DHT22;47030;50.732;4.286;2022-09-09T00:45:08;15.70;99.90
61153;DHT22;47030;50.732;4.286;2022-09-09T00:47:44;15.70;99.90
61153;DHT22;47030;50.732;4.286;2022-09-09T00:50:34;15.60;99.90
61153;DHT22;47030;50.732;4.286;2022-09-09T00:56:13;15.70;99.90
61153;DHT22;47030;50.732;4.286;2022-09-09T01:01:30;15.70;99.90
61153;DHT22;47030;50.732;4.286;2022-09-09T01:03:56;15.60;99.90
61153;DHT22;47030;50.732;4.286;2022-09-09T01:06:32;15.60;99.90
61153;DHT22;47030;50.732;4.286;2022-09-09T01:11:49;15.70;99.90
61153;DHT22;47030;50.732;4.286;2022-09-09T01:16:54;15.60;99.90
61153;DHT22;47030;50.732;4.286;2022-09-09T01:19:37;15.50;99.90
61153;DHT22;47030;50.732;4.286;2022-09-09T01:22:20;15.60;99.90
61153;DHT22;47030;50.732;4.286;2022-09-09T01:27:18;15.70;99.90
61153;DHT22;47030;50.732;4.286;2022-09-09T01:29:45;15.70;99.90
61153;DHT22;47030;50.732;4.286;2022-09-09T01:32:38;15.60;99.90
61153;DHT22;47030;50.732;4.286;2022-09-09T01:35:08;15.60;99.90
61153;DHT22;47030;50.732;4.286;2022-09-09T01:37:36;15.60;99.90
61153;DHT22;47030;50.732;4.286;2022-09-09T01:40:02;15.50;99.90
61153;DHT22;47030;50.732;4.286;2022-09-09T01:42:28;15.60;99.90
61153;DHT22;47030;50.732;4.286;2022-09-09T01:44:54;15.60;99.90
61153;DHT22;47030;50.732;4.286;2022-09-09T01:47:20;15.60;99.90
61153;DHT22;47030;50.732;4.286;2022-09-09T01:49:46;15.60;99.90
61153;DHT22;47030;50.732;4.286;2022-09-09T01:52:12;15.50;99.90
61153;DHT22;47030;50.732;4.286;2022-09-09T01:54:38;15.60;99.90
61153;DHT22;47030;50.732;4.286;2022-09-09T02:00:03;15.60;99.90
61153;DHT22;47030;50.732;4.286;2022-09-09T02:08:11;15.50;99.90
61153;DHT22;47030;50.732;4.286;2022-09-09T02:10:46;15.50;99.90
61153;DHT22;47030;50.732;4.286;2022-09-09T02:13:17;15.60;99.90
61153;DHT22;47030;50.732;4.286;2022-09-09T02:16:04;15.60;99.90
61153;DHT22;47030;50.732;4.286;2022-09-09T02:18:46;15.60;99.90
61153;DHT22;47030;50.732;4.286;2022-09-09T02:21:13;15.60;99.90
61153;DHT22;47030;50.732;4.286;2022-09-09T02:23:41;15.60;99.90
61153;DHT22;47030;50.732;4.286;2022-09-09T02:26:10;15.60;99.90
61153;DHT22;47030;50.732;4.286;2022-09-09T02:28:39;15.60;99.90
61153;DHT22;47030;50.732;4.286;2022-09-09T02:31:06;15.70;99.90
61153;DHT22;47030;50.732;4.286;2022-09-09T02:33:42;15.70;99.90
61153;DHT22;47030;50.732;4.286;2022-09-09T02:36:11;15.70;99.90
61153;DHT22;47030;50.732;4.286;2022-09-09T02:38:45;15.60;99.90
61153;DHT22;47030;50.732;4.286;2022-09-09T02:41:11;15.60;99.90
61153;DHT22;47030;50.732;4.286;2022-09-09T02:43:37;15.60;99.90
61153;DHT22;47030;50.732;4.286;2022-09-09T02:48:56;15.60;99.90
61153;DHT22;47030;50.732;4.286;2022-09-09T02:54:27;15.70;99.90
61153;DHT22;47030;50.732;4.286;2022-09-09T02:57:12;15.60;99.90
61153;DHT22;47030;50.732;4.286;2022-09-09T02:59:40;15.60;99.90
61153;DHT22;47030;50.732;4.286;2022-09-09T03:02:07;15.60;99.90
61153;DHT22;47030;50.732;4.286;2022-09-09T03:04:32;15.50;99.90
61153;DHT22;47030;50.732;4.286;2022-09-09T03:06:58;15.50;99.90
61153;DHT22;47030;50.732;4.286;2022-09-09T03:09:24;15.50;99.90
61153;DHT22;47030;50.732;4.286;2022-09-09T03:11:51;15.60;99.90
61153;DHT22;47030;50.732;4.286;2022-09-09T03:14:17;15.60;99.90
61153;DHT22;47030;50.732;4.286;2022-09-09T03:16:47;15.50;99.90
61153;DHT22;47030;50.732;4.286;2022-09-09T03:19:13;15.50;99.90
61153;DHT22;47030;50.732;4.286;2022-09-09T03:21:39;15.50;99.90
61153;DHT22;47030;50.732;4.286;2022-09-09T03:24:05;15.50;99.90
61153;DHT22;47030;50.732;4.286;2022-09-09T03:26:32;15.50;99.90
61153;DHT22;47030;50.732;4.286;2022-09-09T03:28:57;15.40;99.90
61153;DHT22;47030;50.732;4.286;2022-09-09T03:31:26;15.40;99.90
61153;DHT22;47030;50.732;4.286;2022-09-09T03:33:56;15.40;99.90
61153;DHT22;47030;50.732;4.286;2022-09-09T03:36:23;15.40;99.90
61153;DHT22;47030;50.732;4.286;2022-09-09T03:38:49;15.40;99.90
61153;DHT22;47030;50.732;4.286;2022-09-09T03:41:16;15.40;99.90
61153;DHT22;47030;50.732;4.286;2022-09-09T03:43:42;15.40;99.90
61153;DHT22;47030;50.732;4.286;2022-09-09T03:46:08;15.50;99.90
61153;DHT22;47030;50.732;4.286;2022-09-09T03:48:34;15.60;99.90
61153;DHT22;47030;50.732;4.286;2022-09-09T03:51:00;15.60;99.90
61153;DHT22;47030;50.732;4.286;2022-09-09T03:53:27;15.70;99.90
61153;DHT22;47030;50.732;4.286;2022-09-09T03:55:55;15.70;99.90
61153;DHT22;47030;50.732;4.286;2022-09-09T03:58:24;15.80;99.90
61153;DHT22;47030;50.732;4.286;2022-09-09T04:01:04;16.00;99.90
61153;DHT22;47030;50.732;4.286;2022-09-09T04:03:31;15.90;99.90
61153;DHT22;47030;50.732;4.286;2022-09-09T04:05:58;16.00;99.90
61153;DHT22;47030;50.732;4.286;2022-09-09T04:08:25;16.00;99.90
61153;DHT22;47030;50.732;4.286;2022-09-09T04:10:51;16.00;99.90
61153;DHT22;47030;50.732;4.286;2022-09-09T04:13:18;16.00;99.90
61153;DHT22;47030;50.732;4.286;2022-09-09T04:15:53;16.00;99.90
61153;DHT22;47030;50.732;4.286;2022-09-09T04:18:20;16.00;99.90
61153;DHT22;47030;50.732;4.286;2022-09-09T04:20:51;16.00;99.90
61153;DHT22;47030;50.732;4.286;2022-09-09T04:23:17;15.90;99.90
61153;DHT22;47030;50.732;4.286;2022-09-09T04:25:51;15.90;99.90
61153;DHT22;47030;50.732;4.286;2022-09-09T04:28:18;15.80;99.90
61153;DHT22;47030;50.732;4.286;2022-09-09T04:30:45;15.80;99.90
61153;DHT22;47030;50.732;4.286;2022-09-09T04:33:12;15.70;99.90
61153;DHT22;47030;50.732;4.286;2022-09-09T04:35:38;15.70;99.90
61153;DHT22;47030;50.732;4.286;2022-09-09T04:38:05;15.70;99.90
61153;DHT22;47030;50.732;4.286;2022-09-09T04:40:34;15.70;99.90
61153;DHT22;47030;50.732;4.286;2022-09-09T04:43:01;15.70;99.90
61153;DHT22;47030;50.732;4.286;2022-09-09T04:45:28;15.80;99.90
61153;DHT22;47030;50.732;4.286;2022-09-09T04:47:54;15.70;99.90
61153;DHT22;47030;50.732;4.286;2022-09-09T04:50:20;15.70;99.90
61153;DHT22;47030;50.732;4.286;2022-09-09T04:52:46;15.80;99.90
61153;DHT22;47030;50.732;4.286;2022-09-09T04:55:12;15.80;99.90
61153;DHT22;47030;50.732;4.286;2022-09-09T04:57:39;15.80;99.90
61153;DHT22;47030;50.732;4.286;2022-09-09T05:00:05;16.00;99.90
61153;DHT22;47030;50.732;4.286;2022-09-09T05:02:31;16.00;99.90
61153;DHT22;47030;50.732;4.286;2022-09-09T05:04:58;16.10;99.90
61153;DHT22;47030;50.732;4.286;2022-09-09T05:07:24;16.20;99.90
61153;DHT22;47030;50.732;4.286;2022-09-09T05:09:51;16.20;99.90
61153;DHT22;47030;50.732;4.286;2022-09-09T05:12:17;16.20;99.90
61153;DHT22;47030;50.732;4.286;2022-09-09T05:14:43;16.20;99.90
61153;DHT22;47030;50.732;4.286;2022-09-09T05:17:10;16.30;99.90
61153;DHT22;47030;50.732;4.286;2022-09-09T05:19:36;16.30;99.90
61153;DHT22;47030;50.732;4.286;2022-09-09T05:22:02;16.30;99.90
61153;DHT22;47030;50.732;4.286;2022-09-09T05:24:28;16.30;99.90
61153;DHT22;47030;50.732;4.286;2022-09-09T05:26:53;16.30;99.90
61153;DHT22;47030;50.732;4.286;2022-09-09T05:29:21;16.40;99.90
61153;DHT22;47030;50.732;4.286;2022-09-09T05:31:47;16.40;99.90
61153;DHT22;47030;50.732;4.286;2022-09-09T05:34:13;16.50;99.90
61153;DHT22;47030;50.732;4.286;2022-09-09T05:36:38;16.60;99.90
61153;DHT22;47030;50.732;4.286;2022-09-09T05:39:04;16.70;99.90
61153;DHT22;47030;50.732;4.286;2022-09-09T05:41:30;16.70;99.90
61153;DHT22;47030;50.732;4.286;2022-09-09T05:43:57;16.60;99.90
61153;DHT22;47030;50.732;4.286;2022-09-09T05:46:24;16.80;99.90
61153;DHT22;47030;50.732;4.286;2022-09-09T05:48:51;16.80;99.90
61153;DHT22;47030;50.732;4.286;2022-09-09T05:51:27;16.80;99.90
61153;DHT22;47030;50.732;4.286;2022-09-09T05:53:55;16.90;99.90
61153;DHT22;47030;50.732;4.286;2022-09-09T05:56:26;16.90;99.90
61153;DHT22;47030;50.732;4.286;2022-09-09T05:58:53;17.00;99.90
61153;DHT22;47030;50.732;4.286;2022-09-09T06:01:24;17.00;99.90
61153;DHT22;47030;50.732;4.286;2022-09-09T06:03:51;17.20;99.90
61153;DHT22;47030;50.732;4.286;2022-09-09T06:06:19;17.40;99.50
61153;DHT22;47030;50.732;4.286;2022-09-09T06:08:54;17.60;99.30
61153;DHT22;47030;50.732;4.286;2022-09-09T06:11:25;17.90;98.70
61153;DHT22;47030;50.732;4.286;2022-09-09T06:13:52;18.30;98.00
61153;DHT22;47030;50.732;4.286;2022-09-09T06:16:21;18.60;97.10
61153;DHT22;47030;50.732;4.286;2022-09-09T06:18:49;18.60;96.70
61153;DHT22;47030;50.732;4.286;2022-09-09T06:21:18;18.30;96.90
61153;DHT22;47030;50.732;4.286;2022-09-09T06:23:45;18.40;97.00
61153;DHT22;47030;50.732;4.286;2022-09-09T06:26:14;18.50;96.60
61153;DHT22;47030;50.732;4.286;2022-09-09T06:28:40;18.60;95.80
61153;DHT22;47030;50.732;4.286;2022-09-09T06:31:10;18.70;96.10
61153;DHT22;47030;50.732;4.286;2022-09-09T06:33:38;18.80;95.60
61153;DHT22;47030;50.732;4.286;2022-09-09T06:36:12;18.70;95.60
61153;DHT22;47030;50.732;4.286;2022-09-09T06:38:38;18.50;95.80
61153;DHT22;47030;50.732;4.286;2022-09-09T06:41:04;18.40;96.10
61153;DHT22;47030;50.732;4.286;2022-09-09T06:43:31;18.20;96.50
61153;DHT22;47030;50.732;4.286;2022-09-09T06:45:58;18.30;96.50
61153;DHT22;47030;50.732;4.286;2022-09-09T06:48:24;18.40;96.30
61153;DHT22;47030;50.732;4.286;2022-09-09T06:51:20;18.40;96.20
61153;DHT22;47030;50.732;4.286;2022-09-09T06:53:55;18.70;96.30
61153;DHT22;47030;50.732;4.286;2022-09-09T06:56:30;19.20;94.80
61153;DHT22;47030;50.732;4.286;2022-09-09T06:58:58;19.50;93.60
61153;DHT22;47030;50.732;4.286;2022-09-09T07:01:28;19.30;94.00
61153;DHT22;47030;50.732;4.286;2022-09-09T07:03:57;19.10;94.20
61153;DHT22;47030;50.732;4.286;2022-09-09T07:06:35;19.00;94.60
61153;DHT22;47030;50.732;4.286;2022-09-09T07:09:04;18.70;94.80
61153;DHT22;47030;50.732;4.286;2022-09-09T07:11:32;18.60;95.40
61153;DHT22;47030;50.732;4.286;2022-09-09T07:13:59;18.60;95.30
61153;DHT22;47030;50.732;4.286;2022-09-09T07:16:26;18.40;95.40
61153;DHT22;47030;50.732;4.286;2022-09-09T07:18:57;18.30;95.90
61153;DHT22;47030;50.732;4.286;2022-09-09T07:21:27;18.30;96.20
61153;DHT22;47030;50.732;4.286;2022-09-09T07:23:53;18.10;96.10
61153;DHT22;47030;50.732;4.286;2022-09-09T07:26:22;18.00;96.50
61153;DHT22;47030;50.732;4.286;2022-09-09T07:28:48;18.00;96.90
61153;DHT22;47030;50.732;4.286;2022-09-09T07:31:19;18.00;97.80
61153;DHT22;47030;50.732;4.286;2022-09-09T07:33:46;17.90;98.20
61153;DHT22;47030;50.732;4.286;2022-09-09T07:36:18;17.60;98.60
61153;DHT22;47030;50.732;4.286;2022-09-09T07:38:48;17.30;99.60
61153;DHT22;47030;50.732;4.286;2022-09-09T07:41:20;17.10;99.90
61153;DHT22;47030;50.732;4.286;2022-09-09T07:43:48;16.90;99.90
61153;DHT22;47030;50.732;4.286;2022-09-09T07:46:16;17.00;99.90
61153;DHT22;47030;50.732;4.286;2022-09-09T07:48:53;17.00;99.90
61153;DHT22;47030;50.732;4.286;2022-09-09T07:51:25;17.20;99.90
61153;DHT22;47030;50.732;4.286;2022-09-09T07:53:54;17.40;99.90
61153;DHT22;47030;50.732;4.286;2022-09-09T07:56:20;17.70;99.90
61153;DHT22;47030;50.732;4.286;2022-09-09T07:58:49;18.00;99.20
61153;DHT22;47030;50.732;4.286;2022-09-09T08:01:18;18.70;98.40
61153;DHT22;47030;50.732;4.286;2022-09-09T08:03:51;20.40;95.90
61153;DHT22;47030;50.732;4.286;2022-09-09T08:06:18;21.60;92.70
61153;DHT22;47030;50.732;4.286;2022-09-09T08:08:43;22.90;90.40
61153;DHT22;47030;50.732;4.286;2022-09-09T08:11:13;24.70;84.00
61153;DHT22;47030;50.732;4.286;2022-09-09T08:13:40;25.70;78.60
61153;DHT22;47030;50.732;4.286;2022-09-09T08:16:11;25.50;74.80
61153;DHT22;47030;50.732;4.286;2022-09-09T08:18:37;24.60;78.20
61153;DHT22;47030;50.732;4.286;2022-09-09T08:21:18;24.00;79.10
61153;DHT22;47030;50.732;4.286;2022-09-09T08:23:45;23.40;80.90
61153;DHT22;47030;50.732;4.286;2022-09-09T08:26:17;22.60;84.40
61153;DHT22;47030;50.732;4.286;2022-09-09T08:28:46;21.90;87.60
61153;DHT22;47030;50.732;4.286;2022-09-09T08:31:15;21.40;88.80
61153;DHT22;47030;50.732;4.286;2022-09-09T08:33:43;21.10;90.00
61153;DHT22;47030;50.732;4.286;2022-09-09T08:36:18;20.60;90.90
61153;DHT22;47030;50.732;4.286;2022-09-09T08:38:49;20.40;92.20
61153;DHT22;47030;50.732;4.286;2022-09-09T08:47:03;19.90;93.20
61153;DHT22;47030;50.732;4.286;2022-09-09T08:52:03;19.60;94.30
61153;DHT22;47030;50.732;4.286;2022-09-09T08:54:34;19.60;94.30
61153;DHT22;47030;50.732;4.286;2022-09-09T08:57:01;19.60;94.70
61153;DHT22;47030;50.732;4.286;2022-09-09T08:59:28;19.40;95.00
61153;DHT22;47030;50.732;4.286;2022-09-09T09:02:00;19.40;95.30
61153;DHT22;47030;50.732;4.286;2022-09-09T09:10:46;18.90;96.20
61153;DHT22;47030;50.732;4.286;2022-09-09T09:13:19;18.60;96.90
61153;DHT22;47030;50.732;4.286;2022-09-09T09:15:54;18.50;97.50
61153;DHT22;47030;50.732;4.286;2022-09-09T09:18:22;18.40;97.90
61153;DHT22;47030;50.732;4.286;2022-09-09T09:23:23;18.20;98.50
61153;DHT22;47030;50.732;4.286;2022-09-09T09:25:52;18.30;98.40
61153;DHT22;47030;50.732;4.286;2022-09-09T09:28:25;18.20;98.70
61153;DHT22;47030;50.732;4.286;2022-09-09T09:31:02;18.30;98.50
61153;DHT22;47030;50.732;4.286;2022-09-09T09:33:50;18.30;98.30
61153;DHT22;47030;50.732;4.286;2022-09-09T09:36:32;18.30;98.30
61153;DHT22;47030;50.732;4.286;2022-09-09T09:39:01;18.20;98.60
61153;DHT22;47030;50.732;4.286;2022-09-09T09:41:38;18.30;98.70
61153;DHT22;47030;50.732;4.286;2022-09-09T09:44:18;18.20;98.90
61153;DHT22;47030;50.732;4.286;2022-09-09T09:46:47;18.20;99.20
61153;DHT22;47030;50.732;4.286;2022-09-09T09:49:12;18.20;99.40
61153;DHT22;47030;50.732;4.286;2022-09-09T09:51:39;18.20;99.30
61153;DHT22;47030;50.732;4.286;2022-09-09T09:56:35;18.40;99.00
61153;DHT22;47030;50.732;4.286;2022-09-09T09:59:01;18.50;98.50
61153;DHT22;47030;50.732;4.286;2022-09-09T10:01:28;18.60;98.20
61153;DHT22;47030;50.732;4.286;2022-09-09T10:04:20;18.70;98.30
61153;DHT22;47030;50.732;4.286;2022-09-09T10:06:49;18.80;98.10
61153;DHT22;47030;50.732;4.286;2022-09-09T10:09:25;18.80;97.80
61153;DHT22;47030;50.732;4.286;2022-09-09T10:14:53;18.90;97.10
61153;DHT22;47030;50.732;4.286;2022-09-09T10:22:51;19.20;97.30
61153;DHT22;47030;50.732;4.286;2022-09-09T10:36:13;19.60;97.20
61153;DHT22;47030;50.732;4.286;2022-09-09T10:38:50;20.00;96.60
61153;DHT22;47030;50.732;4.286;2022-09-09T10:44:19;20.30;95.30
61153;DHT22;47030;50.732;4.286;2022-09-09T10:46:51;20.40;95.50
61153;DHT22;47030;50.732;4.286;2022-09-09T10:55:20;20.40;95.70
61153;DHT22;47030;50.732;4.286;2022-09-09T10:57:52;20.40;94.50
61153;DHT22;47030;50.732;4.286;2022-09-09T11:00:40;20.20;94.30
61153;DHT22;47030;50.732;4.286;2022-09-09T11:03:14;20.10;94.50
61153;DHT22;47030;50.732;4.286;2022-09-09T11:05:53;19.90;95.00
61153;DHT22;47030;50.732;4.286;2022-09-09T11:08:25;19.90;95.30
61153;DHT22;47030;50.732;4.286;2022-09-09T11:16:16;20.60;94.90
61153;DHT22;47030;50.732;4.286;2022-09-09T11:18:46;20.70;94.20
61153;DHT22;47030;50.732;4.286;2022-09-09T11:21:34;20.60;94.10
61153;DHT22;47030;50.732;4.286;2022-09-09T11:24:10;20.80;94.10
61153;DHT22;47030;50.732;4.286;2022-09-09T11:26:42;20.60;93.70
61153;DHT22;47030;50.732;4.286;2022-09-09T11:30:03;20.60;94.20
61153;DHT22;47030;50.732;4.286;2022-09-09T11:42:45;20.70;93.60
61153;DHT22;47030;50.732;4.286;2022-09-09T11:45:21;20.70;93.60
61153;DHT22;47030;50.732;4.286;2022-09-09T11:47:56;20.60;93.70
61153;DHT22;47030;50.732;4.286;2022-09-09T11:52:48;20.60;93.50
61153;DHT22;47030;50.732;4.286;2022-09-09T11:58:03;20.70;93.60
61153;DHT22;47030;50.732;4.286;2022-09-09T12:00:40;20.60;93.40
61153;DHT22;47030;50.732;4.286;2022-09-09T12:03:45;20.50;93.10
61153;DHT22;47030;50.732;4.286;2022-09-09T12:06:19;20.40;93.50
61153;DHT22;47030;50.732;4.286;2022-09-09T12:08:51;20.40;94.00
61153;DHT22;47030;50.732;4.286;2022-09-09T12:11:26;20.60;93.60
61153;DHT22;47030;50.732;4.286;2022-09-09T12:13:57;20.50;93.80
61153;DHT22;47030;50.732;4.286;2022-09-09T12:16:35;20.70;93.10
61153;DHT22;47030;50.732;4.286;2022-09-09T12:21:48;21.00;92.90
61153;DHT22;47030;50.732;4.286;2022-09-09T12:26:58;21.70;91.50
61153;DHT22;47030;50.732;4.286;2022-09-09T12:29:41;21.50;91.30
61153;DHT22;47030;50.732;4.286;2022-09-09T12:32:16;21.40;91.80
61153;DHT22;47030;50.732;4.286;2022-09-09T12:37:27;21.20;91.50
61153;DHT22;47030;50.732;4.286;2022-09-09T12:39:56;21.20;91.80
61153;DHT22;47030;50.732;4.286;2022-09-09T12:42:23;21.10;91.90
61153;DHT22;47030;50.732;4.286;2022-09-09T12:45:00;21.20;91.90
61153;DHT22;47030;50.732;4.286;2022-09-09T12:47:55;21.40;91.30
61153;DHT22;47030;50.732;4.286;2022-09-09T12:50:28;21.60;91.40
61153;DHT22;47030;50.732;4.286;2022-09-09T12:52:57;21.50;91.50
61153;DHT22;47030;50.732;4.286;2022-09-09T12:55:28;21.20;91.40
61153;DHT22;47030;50.732;4.286;2022-09-09T12:57:56;21.10;91.30
61153;DHT22;47030;50.732;4.286;2022-09-09T13:00:24;21.00;91.30
61153;DHT22;47030;50.732;4.286;2022-09-09T13:03:14;21.10;91.40
61153;DHT22;47030;50.732;4.286;2022-09-09T13:05:41;21.50;91.00
61153;DHT22;47030;50.732;4.286;2022-09-09T13:08:14;22.00;90.50
61153;DHT22;47030;50.732;4.286;2022-09-09T13:10:44;22.40;90.20
61153;DHT22;47030;50.732;4.286;2022-09-09T13:13:16;22.40;88.60
61153;DHT22;47030;50.732;4.286;2022-09-09T13:15:57;22.40;87.30
61153;DHT22;47030;50.732;4.286;2022-09-09T13:18:28;22.30;88.00
61153;DHT22;47030;50.732;4.286;2022-09-09T13:20:55;22.50;88.40
61153;DHT22;47030;50.732;4.286;2022-09-09T13:23:31;22.40;87.80
61153;DHT22;47030;50.732;4.286;2022-09-09T13:26:02;22.40;87.30
61153;DHT22;47030;50.732;4.286;2022-09-09T13:28:30;22.40;87.10
61153;DHT22;47030;50.732;4.286;2022-09-09T13:31:20;22.50;87.00
61153;DHT22;47030;50.732;4.286;2022-09-09T13:33:46;22.90;86.80
61153;DHT22;47030;50.732;4.286;2022-09-09T13:36:12;23.10;86.50
61153;DHT22;47030;50.732;4.286;2022-09-09T13:41:27;23.40;82.80
61153;DHT22;47030;50.732;4.286;2022-09-09T13:43:55;23.50;82.60
61153;DHT22;47030;50.732;4.286;2022-09-09T13:49:02;23.70;82.50
61153;DHT22;47030;50.732;4.286;2022-09-09T13:53:58;23.90;81.90
61153;DHT22;47030;50.732;4.286;2022-09-09T13:56:26;24.20;81.00
61153;DHT22;47030;50.732;4.286;2022-09-09T13:58:52;23.90;80.90
61153;DHT22;47030;50.732;4.286;2022-09-09T14:01:17;23.90;81.60
61153;DHT22;47030;50.732;4.286;2022-09-09T14:03:43;23.80;81.90
61153;DHT22;47030;50.732;4.286;2022-09-09T14:06:10;23.70;82.50
61153;DHT22;47030;50.732;4.286;2022-09-09T14:08:36;23.50;81.30
61153;DHT22;47030;50.732;4.286;2022-09-09T14:11:05;23.30;83.00
61153;DHT22;47030;50.732;4.286;2022-09-09T14:13:32;23.00;84.20
61153;DHT22;47030;50.732;4.286;2022-09-09T14:15:58;22.80;84.30
61153;DHT22;47030;50.732;4.286;2022-09-09T14:18:23;22.70;84.80
61153;DHT22;47030;50.732;4.286;2022-09-09T14:20:51;22.70;85.00
61153;DHT22;47030;50.732;4.286;2022-09-09T14:23:16;22.60;85.20
61153;DHT22;47030;50.732;4.286;2022-09-09T14:25:43;22.70;85.60
61153;DHT22;47030;50.732;4.286;2022-09-09T14:28:10;22.70;85.10
61153;DHT22;47030;50.732;4.286;2022-09-09T14:30:38;22.60;85.10
61153;DHT22;47030;50.732;4.286;2022-09-09T14:33:04;22.50;84.80
61153;DHT22;47030;50.732;4.286;2022-09-09T14:35:30;22.60;83.90
61153;DHT22;47030;50.732;4.286;2022-09-09T14:37:55;22.50;83.90
61153;DHT22;47030;50.732;4.286;2022-09-09T14:40:21;22.50;85.00
61153;DHT22;47030;50.732;4.286;2022-09-09T14:42:47;22.40;84.50
61153;DHT22;47030;50.732;4.286;2022-09-09T14:45:13;22.70;84.20
61153;DHT22;47030;50.732;4.286;2022-09-09T14:47:39;23.00;81.50
61153;DHT22;47030;50.732;4.286;2022-09-09T14:50:05;22.80;81.50
61153;DHT22;47030;50.732;4.286;2022-09-09T14:52:31;22.50;82.40
61153;DHT22;47030;50.732;4.286;2022-09-09T14:54:57;22.40;82.30
61153;DHT22;47030;50.732;4.286;2022-09-09T14:57:23;22.10;83.10
61153;DHT22;47030;50.732;4.286;2022-09-09T14:59:49;22.10;84.40
61153;DHT22;47030;50.732;4.286;2022-09-09T15:02:15;22.20;85.20
61153;DHT22;47030;50.732;4.286;2022-09-09T15:04:42;22.20;85.60
61153;DHT22;47030;50.732;4.286;2022-09-09T15:07:07;22.30;85.60
61153;DHT22;47030;50.732;4.286;2022-09-09T15:09:33;22.50;85.90
61153;DHT22;47030;50.732;4.286;2022-09-09T15:11:59;22.30;85.30
61153;DHT22;47030;50.732;4.286;2022-09-09T15:14:26;22.40;86.00
61153;DHT22;47030;50.732;4.286;2022-09-09T15:16:52;22.30;85.20
61153;DHT22;47030;50.732;4.286;2022-09-09T15:19:17;22.40;86.30
61153;DHT22;47030;50.732;4.286;2022-09-09T15:21:43;22.30;86.00
61153;DHT22;47030;50.732;4.286;2022-09-09T15:24:09;22.20;86.00
61153;DHT22;47030;50.732;4.286;2022-09-09T15:26:36;22.00;87.70
61153;DHT22;47030;50.732;4.286;2022-09-09T15:29:03;22.00;87.70
61153;DHT22;47030;50.732;4.286;2022-09-09T15:31:30;21.90;88.00
61153;DHT22;47030;50.732;4.286;2022-09-09T15:34:06;21.90;87.90
61153;DHT22;47030;50.732;4.286;2022-09-09T15:36:38;21.80;87.50
61153;DHT22;47030;50.732;4.286;2022-09-09T15:39:06;21.70;88.10
61153;DHT22;47030;50.732;4.286;2022-09-09T15:41:33;21.60;86.30
61153;DHT22;47030;50.732;4.286;2022-09-09T15:43:59;21.50;87.40
61153;DHT22;47030;50.732;4.286;2022-09-09T15:46:27;21.40;88.10
61153;DHT22;47030;50.732;4.286;2022-09-09T15:48:58;21.50;87.80
61153;DHT22;47030;50.732;4.286;2022-09-09T15:51:28;21.50;88.20
61153;DHT22;47030;50.732;4.286;2022-09-09T15:53:55;21.70;87.30
61153;DHT22;47030;50.732;4.286;2022-09-09T15:56:22;21.90;86.40
61153;DHT22;47030;50.732;4.286;2022-09-09T15:58:48;21.90;85.80
61153;DHT22;47030;50.732;4.286;2022-09-09T16:01:13;21.90;86.10
61153;DHT22;47030;50.732;4.286;2022-09-09T16:03:41;21.80;86.70
61153;DHT22;47030;50.732;4.286;2022-09-09T16:06:17;21.80;86.70
61153;DHT22;47030;50.732;4.286;2022-09-09T16:08:44;21.60;86.50
61153;DHT22;47030;50.732;4.286;2022-09-09T16:11:14;21.40;87.10
61153;DHT22;47030;50.732;4.286;2022-09-09T16:13:41;21.50;88.20
61153;DHT22;47030;50.732;4.286;2022-09-09T16:16:10;21.50;88.80
61153;DHT22;47030;50.732;4.286;2022-09-09T16:18:40;21.50;88.00
61153;DHT22;47030;50.732;4.286;2022-09-09T16:21:07;21.50;88.70
61153;DHT22;47030;50.732;4.286;2022-09-09T16:23:36;21.50;88.80
61153;DHT22;47030;50.732;4.286;2022-09-09T16:26:02;21.40;88.60
61153;DHT22;47030;50.732;4.286;2022-09-09T16:28:28;21.30;89.00
61153;DHT22;47030;50.732;4.286;2022-09-09T16:30:54;21.30;89.20
61153;DHT22;47030;50.732;4.286;2022-09-09T16:33:20;21.10;90.10
61153;DHT22;47030;50.732;4.286;2022-09-09T16:35:47;21.00;90.10
61153;DHT22;47030;50.732;4.286;2022-09-09T16:38:14;20.90;90.30
61153;DHT22;47030;50.732;4.286;2022-09-09T16:40:40;20.80;90.80
61153;DHT22;47030;50.732;4.286;2022-09-09T16:43:07;20.90;91.10
61153;DHT22;47030;50.732;4.286;2022-09-09T16:45:40;21.10;91.40
61153;DHT22;47030;50.732;4.286;2022-09-09T16:48:06;21.30;91.00
61153;DHT22;47030;50.732;4.286;2022-09-09T16:50:32;21.40;91.00
61153;DHT22;47030;50.732;4.286;2022-09-09T16:52:57;21.50;90.70
61153;DHT22;47030;50.732;4.286;2022-09-09T16:55:23;21.80;90.20
61153;DHT22;47030;50.732;4.286;2022-09-09T16:57:49;21.80;89.70
61153;DHT22;47030;50.732;4.286;2022-09-09T17:00:15;21.90;89.80
61153;DHT22;47030;50.732;4.286;2022-09-09T17:02:44;21.90;89.50
61153;DHT22;47030;50.732;4.286;2022-09-09T17:05:10;21.50;89.70
61153;DHT22;47030;50.732;4.286;2022-09-09T17:07:37;21.40;89.10
61153;DHT22;47030;50.732;4.286;2022-09-09T17:10:04;21.00;88.90
61153;DHT22;47030;50.732;4.286;2022-09-09T17:12:31;20.70;89.70
61153;DHT22;47030;50.732;4.286;2022-09-09T17:14:57;20.50;90.10
61153;DHT22;47030;50.732;4.286;2022-09-09T17:17:26;20.50;90.20
61153;DHT22;47030;50.732;4.286;2022-09-09T17:19:53;20.30;90.10
61153;DHT22;47030;50.732;4.286;2022-09-09T17:22:19;20.20;90.10
61153;DHT22;47030;50.732;4.286;2022-09-09T17:24:48;20.10;90.80
61153;DHT22;47030;50.732;4.286;2022-09-09T17:27:14;20.00;90.50
61153;DHT22;47030;50.732;4.286;2022-09-09T17:29:40;19.90;90.90
61153;DHT22;47030;50.732;4.286;2022-09-09T17:32:06;19.70;90.80
61153;DHT22;47030;50.732;4.286;2022-09-09T17:34:33;19.60;90.40
61153;DHT22;47030;50.732;4.286;2022-09-09T17:36:59;19.50;90.20
61153;DHT22;47030;50.732;4.286;2022-09-09T17:39:25;19.30;90.50
61153;DHT22;47030;50.732;4.286;2022-09-09T17:41:51;19.20;90.90
61153;DHT22;47030;50.732;4.286;2022-09-09T17:44:18;19.10;90.90
61153;DHT22;47030;50.732;4.286;2022-09-09T17:46:44;19.10;90.90
61153;DHT22;47030;50.732;4.286;2022-09-09T17:49:12;19.00;91.30
61153;DHT22;47030;50.732;4.286;2022-09-09T17:51:39;18.90;91.80
61153;DHT22;47030;50.732;4.286;2022-09-09T17:54:12;18.80;91.90